createdAt,value
2023-06-30T00:02:02.197Z,20.84
2023-06-30T00:04:31.432Z,20.82
2023-06-30T00:06:59.117Z,20.78
2023-06-30T00:09:26.957Z,20.84
2023-06-30T00:11:56.146Z,20.73
2023-06-30T00:14:24.155Z,20.74
2023-06-30T00:16:52.230Z,20.77
2023-06-30T00:19:21.107Z,20.76
2023-06-30T00:21:53.287Z,20.74
2023-06-30T00:24:21.666Z,20.64
2023-06-30T00:26:49.102Z,20.69
2023-06-30T00:29:17.721Z,20.67
2023-06-30T00:31:45.552Z,20.62
2023-06-30T00:34:13.157Z,20.60
2023-06-30T00:36:40.650Z,20.63
2023-06-30T00:39:08.389Z,20.53
2023-06-30T00:41:35.935Z,20.55
2023-06-30T00:44:03.393Z,20.60
2023-06-30T00:46:31.174Z,20.56
2023-06-30T00:48:59.389Z,20.55
2023-06-30T00:51:27.028Z,20.51
2023-06-30T00:53:56.949Z,20.47
2023-06-30T00:56:26.810Z,20.46
2023-06-30T00:58:54.620Z,20.39
2023-06-30T01:01:48.974Z,20.38
2023-06-30T01:04:43.531Z,20.38
2023-06-30T01:07:23.922Z,20.32
2023-06-30T01:10:15.232Z,20.19
2023-06-30T01:12:43.948Z,20.25
2023-06-30T01:15:12.885Z,20.18
2023-06-30T01:17:46.712Z,20.19
2023-06-30T01:20:17.784Z,20.23
2023-06-30T01:22:50.364Z,20.21
2023-06-30T01:25:27.645Z,20.23
2023-06-30T01:27:56.546Z,20.17
2023-06-30T01:30:25.255Z,20.09
2023-06-30T01:32:56.238Z,20.08
2023-06-30T01:35:24.274Z,20.07
2023-06-30T01:37:54.154Z,20.02
2023-06-30T01:40:22.225Z,20.03
2023-06-30T01:42:55.521Z,20.02
2023-06-30T01:45:26.851Z,20.03
2023-06-30T01:47:55.899Z,19.96
2023-06-30T01:50:23.746Z,19.98
2023-06-30T01:52:51.590Z,19.95
2023-06-30T01:55:19.313Z,19.97
2023-06-30T01:57:46.783Z,19.95
2023-06-30T02:00:15.240Z,19.87
2023-06-30T02:02:42.817Z,19.90
2023-06-30T02:05:13.014Z,19.92
2023-06-30T02:07:40.594Z,19.89
2023-06-30T02:10:08.989Z,19.84
2023-06-30T02:12:38.412Z,19.74
2023-06-30T02:15:06.759Z,19.78
2023-06-30T02:17:34.780Z,19.80
2023-06-30T02:20:07.520Z,19.81
2023-06-30T02:22:35.350Z,19.72
2023-06-30T02:25:03.164Z,19.75
2023-06-30T02:27:33.176Z,19.74
2023-06-30T02:30:09.320Z,19.75
2023-06-30T02:32:41.200Z,19.74
2023-06-30T02:35:10.268Z,19.70
2023-06-30T02:37:38.144Z,19.72
2023-06-30T02:40:06.871Z,19.62
2023-06-30T02:42:34.684Z,19.66
2023-06-30T02:45:02.148Z,19.59
2023-06-30T02:47:31.440Z,19.65
2023-06-30T02:49:59.251Z,19.63
2023-06-30T02:52:26.967Z,19.61
2023-06-30T02:54:54.563Z,19.58
2023-06-30T02:57:23.423Z,19.57
2023-06-30T02:59:51.539Z,19.48
2023-06-30T03:02:19.606Z,19.39
2023-06-30T03:04:47.696Z,19.50
2023-06-30T03:07:17.568Z,19.45
2023-06-30T03:09:46.055Z,19.48
2023-06-30T03:12:14.098Z,19.48
2023-06-30T03:14:43.138Z,19.47
2023-06-30T03:17:10.629Z,19.51
2023-06-30T03:19:38.513Z,19.44
2023-06-30T03:22:06.228Z,19.37
2023-06-30T03:24:33.725Z,19.38
2023-06-30T03:27:01.594Z,19.43
2023-06-30T03:29:29.176Z,19.51
2023-06-30T03:31:58.022Z,19.56
2023-06-30T03:34:25.876Z,19.57
2023-06-30T03:36:53.319Z,19.54
2023-06-30T03:39:21.085Z,19.67
2023-06-30T03:41:48.813Z,19.69
2023-06-30T03:44:16.371Z,19.71
2023-06-30T03:46:43.929Z,19.74
2023-06-30T03:49:11.751Z,19.78
2023-06-30T03:51:39.496Z,19.85
2023-06-30T03:54:09.912Z,19.96
2023-06-30T03:56:37.928Z,19.95
2023-06-30T03:59:06.311Z,20.02
2023-06-30T04:01:35.007Z,19.99
2023-06-30T04:04:03.737Z,20.04
2023-06-30T04:06:34.468Z,20.07
2023-06-30T04:09:01.937Z,20.13
2023-06-30T04:11:29.945Z,20.17
2023-06-30T04:14:00.298Z,20.23
2023-06-30T04:16:27.959Z,20.25
2023-06-30T04:18:56.164Z,20.46
2023-06-30T04:21:23.849Z,20.46
2023-06-30T04:23:51.319Z,20.45
2023-06-30T04:26:19.032Z,20.56
2023-06-30T04:28:46.763Z,20.48
2023-06-30T04:31:14.434Z,20.63
2023-06-30T04:33:42.219Z,20.70
2023-06-30T04:36:09.980Z,20.75
2023-06-30T04:38:37.623Z,20.85
2023-06-30T04:41:05.678Z,20.96
2023-06-30T04:43:34.116Z,20.97
2023-06-30T04:46:01.669Z,20.96
2023-06-30T04:48:29.573Z,21.04
2023-06-30T04:50:57.027Z,21.19
2023-06-30T04:53:24.496Z,21.24
2023-06-30T04:55:52.216Z,21.27
2023-06-30T04:58:19.677Z,21.41
2023-06-30T05:00:47.065Z,21.39
2023-06-30T05:03:14.856Z,21.59
2023-06-30T05:05:42.825Z,21.55
2023-06-30T05:08:10.381Z,21.71
2023-06-30T05:10:38.749Z,21.71
2023-06-30T05:13:06.236Z,21.81
2023-06-30T05:15:33.751Z,21.87
2023-06-30T05:18:02.130Z,21.92
2023-06-30T05:20:29.632Z,22.03
2023-06-30T05:22:57.054Z,22.18
2023-06-30T05:25:24.751Z,22.04
2023-06-30T05:27:52.271Z,22.10
2023-06-30T05:30:19.824Z,22.32
2023-06-30T05:32:47.523Z,22.35
2023-06-30T05:35:15.019Z,22.56
2023-06-30T05:37:42.466Z,22.58
2023-06-30T05:40:10.708Z,22.57
2023-06-30T05:42:38.310Z,22.62
2023-06-30T05:45:06.274Z,22.89
2023-06-30T05:47:34.044Z,23.01
2023-06-30T05:50:01.533Z,23.02
2023-06-30T05:52:29.047Z,23.15
2023-06-30T05:54:56.779Z,23.19
2023-06-30T05:57:24.201Z,23.20
2023-06-30T05:59:51.889Z,23.35
2023-06-30T06:02:19.694Z,23.34
2023-06-30T06:04:47.662Z,23.48
2023-06-30T06:07:15.313Z,23.77
2023-06-30T06:09:42.991Z,23.83
2023-06-30T06:12:10.727Z,23.93
2023-06-30T06:14:38.146Z,24.35
2023-06-30T06:17:05.788Z,24.40
2023-06-30T06:19:33.663Z,24.49
2023-06-30T06:22:01.833Z,24.71
2023-06-30T06:24:29.293Z,24.82
2023-06-30T06:26:57.053Z,25.12
2023-06-30T06:29:24.598Z,25.31
2023-06-30T06:31:52.727Z,25.52
2023-06-30T06:34:20.863Z,25.65
2023-06-30T06:36:48.903Z,25.70
2023-06-30T06:39:16.361Z,25.94
2023-06-30T06:41:45.995Z,26.12
2023-06-30T06:44:17.588Z,26.27
2023-06-30T06:46:45.358Z,26.50
2023-06-30T06:49:12.843Z,26.64
2023-06-30T06:51:40.403Z,26.65
2023-06-30T06:54:08.081Z,26.88
2023-06-30T06:56:35.528Z,27.10
2023-06-30T06:59:03.206Z,27.32
2023-06-30T07:01:31.709Z,27.48
2023-06-30T07:03:59.517Z,27.68
2023-06-30T07:06:26.966Z,27.97
2023-06-30T07:08:54.686Z,28.19
2023-06-30T07:11:22.234Z,28.15
2023-06-30T07:13:49.688Z,28.36
2023-06-30T07:16:19.511Z,28.56
2023-06-30T07:18:47.168Z,28.76
2023-06-30T07:21:14.632Z,28.85
2023-06-30T07:23:42.512Z,28.95
2023-06-30T07:26:10.687Z,28.96
2023-06-30T07:28:38.137Z,29.01
2023-06-30T07:31:05.911Z,29.08
2023-06-30T07:33:33.701Z,29.34
2023-06-30T07:36:01.138Z,29.35
2023-06-30T07:38:28.840Z,29.45
2023-06-30T07:40:57.493Z,29.66
2023-06-30T07:43:25.582Z,29.69
2023-06-30T07:45:53.510Z,29.64
2023-06-30T07:48:21.302Z,29.82
2023-06-30T07:50:59.612Z,29.87
2023-06-30T07:53:36.369Z,29.98
2023-06-30T07:56:04.020Z,30.09
2023-06-30T07:58:32.546Z,30.08
2023-06-30T08:01:00.316Z,30.14
2023-06-30T08:03:28.221Z,30.11
2023-06-30T08:05:57.645Z,30.17
2023-06-30T08:08:25.253Z,29.95
2023-06-30T08:10:53.039Z,30.12
2023-06-30T08:13:20.519Z,30.25
2023-06-30T08:15:49.503Z,29.97
2023-06-30T08:18:28.045Z,30.22
2023-06-30T08:21:00.759Z,30.34
2023-06-30T08:23:28.570Z,30.28
2023-06-30T08:25:56.531Z,30.29
2023-06-30T08:28:24.016Z,30.21
2023-06-30T08:30:52.671Z,30.26
2023-06-30T08:33:35.049Z,30.08
2023-06-30T08:36:07.512Z,30.24
2023-06-30T08:38:35.353Z,30.34
2023-06-30T08:41:04.284Z,30.34
2023-06-30T08:43:33.420Z,30.33
2023-06-30T08:46:05.070Z,30.31
2023-06-30T08:48:33.339Z,30.51
2023-06-30T08:51:01.445Z,30.47
2023-06-30T08:53:30.235Z,30.54
2023-06-30T08:55:59.574Z,30.63
2023-06-30T08:58:28.334Z,30.69
2023-06-30T09:00:59.104Z,30.76
2023-06-30T09:03:28.026Z,30.95
2023-06-30T09:05:56.948Z,30.90
2023-06-30T09:08:25.321Z,30.81
2023-06-30T09:10:54.644Z,30.77
2023-06-30T09:13:24.891Z,30.86
2023-06-30T09:15:55.698Z,30.96
2023-06-30T09:18:23.445Z,31.07
2023-06-30T09:20:51.075Z,31.08
2023-06-30T09:23:18.999Z,31.10
2023-06-30T09:25:46.981Z,31.10
2023-06-30T09:28:15.546Z,31.07
2023-06-30T09:30:45.539Z,31.04
2023-06-30T09:33:17.346Z,31.11
2023-06-30T09:35:48.599Z,31.23
2023-06-30T09:38:18.731Z,30.92
2023-06-30T09:40:48.411Z,31.17
2023-06-30T09:43:17.910Z,31.53
2023-06-30T09:46:04.298Z,31.61
2023-06-30T09:48:33.404Z,31.49
2023-06-30T09:51:01.179Z,31.56
2023-06-30T09:53:36.473Z,31.38
2023-06-30T09:56:04.920Z,31.54
2023-06-30T09:58:32.491Z,31.51
2023-06-30T10:01:00.180Z,31.50
2023-06-30T10:03:28.071Z,31.59
2023-06-30T10:05:55.623Z,31.73
2023-06-30T10:08:23.882Z,31.83
2023-06-30T10:10:54.927Z,31.71
2023-06-30T10:13:22.981Z,31.89
2023-06-30T10:15:51.293Z,31.59
2023-06-30T10:18:19.097Z,31.68
2023-06-30T10:20:49.706Z,31.59
2023-06-30T10:23:20.540Z,31.58
2023-06-30T10:25:49.264Z,31.46
2023-06-30T10:28:18.112Z,31.33
2023-06-30T10:30:45.945Z,31.41
2023-06-30T10:33:13.566Z,31.16
2023-06-30T10:35:41.570Z,31.43
2023-06-30T10:38:11.028Z,31.68
2023-06-30T10:40:38.671Z,31.61
2023-06-30T10:43:07.244Z,31.74
2023-06-30T10:45:35.708Z,31.47
2023-06-30T10:48:15.588Z,31.72
2023-06-30T10:50:45.613Z,31.80
2023-06-30T10:53:18.979Z,31.98
2023-06-30T10:55:48.089Z,32.02
2023-06-30T10:58:25.757Z,31.87
2023-06-30T11:01:06.858Z,31.75
2023-06-30T11:03:59.639Z,31.54
2023-06-30T11:06:27.947Z,31.90
2023-06-30T11:09:04.240Z,31.97
2023-06-30T11:11:51.797Z,31.94
2023-06-30T11:14:35.493Z,31.94
2023-06-30T11:17:05.616Z,31.97
2023-06-30T11:19:33.309Z,32.10
2023-06-30T11:22:26.815Z,32.19
2023-06-30T11:24:56.327Z,31.87
2023-06-30T11:27:24.195Z,31.83
2023-06-30T11:29:54.287Z,32.04
2023-06-30T11:32:32.275Z,31.97
2023-06-30T11:35:09.185Z,32.12
2023-06-30T11:37:38.059Z,31.99
2023-06-30T11:40:07.675Z,31.93
2023-06-30T11:42:40.593Z,31.48
2023-06-30T11:45:08.904Z,31.81
2023-06-30T11:47:37.271Z,31.91
2023-06-30T11:50:11.718Z,31.85
2023-06-30T11:52:40.359Z,31.99
2023-06-30T11:55:12.621Z,32.07
2023-06-30T11:57:41.708Z,32.08
2023-06-30T12:00:18.068Z,32.09
2023-06-30T12:02:57.375Z,32.10
2023-06-30T12:05:26.877Z,32.17
2023-06-30T12:07:58.902Z,32.22
2023-06-30T12:10:40.928Z,32.15
2023-06-30T12:13:09.594Z,32.33
2023-06-30T12:15:38.373Z,32.49
2023-06-30T12:18:07.314Z,32.49
2023-06-30T12:20:36.774Z,32.55
2023-06-30T12:23:06.188Z,32.69
2023-06-30T12:25:37.546Z,32.66
2023-06-30T12:28:08.541Z,32.69
2023-06-30T12:30:36.258Z,32.80
2023-06-30T12:33:05.008Z,32.43
2023-06-30T12:35:38.426Z,32.58
2023-06-30T12:38:08.712Z,32.70
2023-06-30T12:40:36.682Z,32.69
2023-06-30T12:43:04.970Z,32.56
2023-06-30T12:45:34.427Z,32.72
2023-06-30T12:48:03.525Z,32.62
2023-06-30T12:50:31.102Z,32.49
2023-06-30T12:52:58.971Z,32.37
2023-06-30T12:55:27.838Z,32.60
2023-06-30T12:57:55.550Z,32.47
2023-06-30T13:00:23.015Z,32.48
2023-06-30T13:02:50.932Z,32.45
2023-06-30T13:05:18.442Z,32.57
2023-06-30T13:07:46.030Z,32.74
2023-06-30T13:10:14.840Z,32.60
2023-06-30T13:12:42.454Z,32.54
2023-06-30T13:15:10.363Z,32.61
2023-06-30T13:17:38.498Z,32.47
2023-06-30T13:20:09.009Z,32.37
2023-06-30T13:22:42.672Z,32.30
2023-06-30T13:25:14.919Z,32.36
2023-06-30T13:27:42.560Z,32.09
2023-06-30T13:30:10.244Z,32.27
2023-06-30T13:32:41.031Z,32.42
2023-06-30T13:35:09.086Z,32.49
2023-06-30T13:37:36.679Z,32.31
2023-06-30T13:40:05.580Z,32.35
2023-06-30T13:42:33.067Z,32.37
2023-06-30T13:45:00.936Z,32.46
2023-06-30T13:47:28.752Z,32.41
2023-06-30T13:49:56.269Z,32.44
2023-06-30T13:52:23.711Z,32.38
2023-06-30T13:54:51.478Z,32.24
2023-06-30T13:57:18.955Z,32.34
2023-06-30T13:59:46.424Z,32.30
2023-06-30T14:02:14.163Z,32.32
2023-06-30T14:04:42.027Z,32.30
2023-06-30T14:07:09.533Z,32.28
2023-06-30T14:09:37.004Z,32.47
2023-06-30T14:12:06.377Z,32.39
2023-06-30T14:14:34.095Z,32.24
2023-06-30T14:17:01.586Z,32.25
2023-06-30T14:19:30.034Z,32.26
2023-06-30T14:21:59.279Z,32.21
2023-06-30T14:24:26.748Z,31.97
2023-06-30T14:26:54.467Z,31.87
2023-06-30T14:29:22.104Z,31.87
2023-06-30T14:31:49.566Z,31.75
2023-06-30T14:34:17.468Z,31.73
2023-06-30T14:36:44.985Z,31.75
2023-06-30T14:39:12.752Z,31.82
2023-06-30T14:41:49.892Z,31.78
2023-06-30T14:44:26.699Z,31.68
2023-06-30T14:46:55.509Z,31.72
2023-06-30T14:49:23.055Z,31.42
2023-06-30T14:51:50.734Z,31.42
2023-06-30T14:54:18.471Z,31.34
2023-06-30T14:56:46.189Z,31.25
2023-06-30T14:59:13.742Z,31.21
2023-06-30T15:01:41.495Z,31.22
2023-06-30T15:04:09.019Z,31.14
2023-06-30T15:06:36.473Z,31.03
2023-06-30T15:09:04.238Z,31.11
2023-06-30T15:11:31.687Z,31.07
2023-06-30T15:13:59.108Z,31.11
2023-06-30T15:16:26.995Z,31.14
2023-06-30T15:18:54.449Z,31.00
2023-06-30T15:21:21.921Z,31.06
2023-06-30T15:23:49.695Z,31.10
2023-06-30T15:26:17.409Z,31.01
2023-06-30T15:28:44.837Z,31.15
2023-06-30T15:31:12.570Z,31.14
2023-06-30T15:33:40.113Z,30.99
2023-06-30T15:36:07.622Z,31.18
2023-06-30T15:38:35.399Z,31.16
2023-06-30T15:41:21.291Z,31.14
2023-06-30T15:43:51.251Z,31.15
2023-06-30T15:46:19.160Z,31.06
2023-06-30T15:48:46.737Z,31.01
2023-06-30T15:51:14.492Z,30.94
2023-06-30T15:53:42.244Z,30.88
2023-06-30T15:56:09.941Z,30.86
2023-06-30T15:58:37.707Z,30.90
2023-06-30T16:01:05.221Z,30.99
2023-06-30T16:03:33.227Z,31.06
2023-06-30T16:06:01.118Z,30.99
2023-06-30T16:08:28.692Z,30.99
2023-06-30T16:10:56.412Z,31.02
2023-06-30T16:13:23.906Z,31.12
2023-06-30T16:15:51.510Z,31.15
2023-06-30T16:18:20.126Z,31.09
2023-06-30T16:20:47.593Z,31.04
2023-06-30T16:23:15.056Z,30.93
2023-06-30T16:25:42.882Z,30.95
2023-06-30T16:28:10.339Z,30.91
2023-06-30T16:30:38.105Z,30.97
2023-06-30T16:33:06.019Z,30.81
2023-06-30T16:35:34.350Z,30.71
2023-06-30T16:38:02.436Z,30.70
2023-06-30T16:40:30.173Z,30.84
2023-06-30T16:42:57.802Z,30.76
2023-06-30T16:45:25.325Z,30.87
2023-06-30T16:47:53.096Z,30.73
2023-06-30T16:50:20.657Z,30.69
2023-06-30T16:52:49.872Z,30.65
2023-06-30T16:55:17.686Z,30.55
2023-06-30T16:57:45.185Z,30.63
2023-06-30T17:00:13.453Z,30.49
2023-06-30T17:02:41.388Z,30.54
2023-06-30T17:05:09.838Z,30.50
2023-06-30T17:07:37.494Z,30.51
2023-06-30T17:10:05.780Z,30.54
2023-06-30T17:12:34.868Z,30.60
2023-06-30T17:15:02.443Z,30.60
2023-06-30T17:17:30.218Z,30.57
2023-06-30T17:19:57.752Z,30.46
2023-06-30T17:22:25.261Z,30.42
2023-06-30T17:24:56.041Z,30.35
2023-06-30T17:27:26.419Z,30.44
2023-06-30T17:29:54.264Z,30.18
2023-06-30T17:32:21.829Z,30.29
2023-06-30T17:34:49.348Z,30.23
2023-06-30T17:37:17.095Z,30.22
2023-06-30T17:39:44.512Z,30.14
2023-06-30T17:42:12.008Z,30.24
2023-06-30T17:44:41.481Z,30.24
2023-06-30T17:47:09.054Z,30.23
2023-06-30T17:49:36.721Z,30.10
2023-06-30T17:52:04.807Z,30.11
2023-06-30T17:54:32.771Z,30.07
2023-06-30T17:57:02.841Z,30.00
2023-06-30T17:59:32.112Z,30.03
2023-06-30T18:02:00.038Z,29.99
2023-06-30T18:04:28.321Z,29.89
2023-06-30T18:07:02.239Z,29.83
2023-06-30T18:09:30.525Z,29.84
2023-06-30T18:11:58.880Z,29.81
2023-06-30T18:14:27.308Z,29.68
2023-06-30T18:16:55.024Z,29.57
2023-06-30T18:19:23.542Z,29.56
2023-06-30T18:21:52.358Z,29.56
2023-06-30T18:24:20.485Z,29.35
2023-06-30T18:26:49.161Z,29.33
2023-06-30T18:29:24.664Z,29.29
2023-06-30T18:31:53.942Z,29.22
2023-06-30T18:34:22.021Z,29.18
2023-06-30T18:36:49.902Z,29.12
2023-06-30T18:39:17.891Z,29.05
2023-06-30T18:41:45.598Z,29.00
2023-06-30T18:44:13.087Z,28.96
2023-06-30T18:46:40.890Z,28.87
2023-06-30T18:49:11.720Z,28.76
2023-06-30T18:51:42.912Z,28.69
2023-06-30T18:54:11.105Z,28.70
2023-06-30T18:56:38.804Z,28.64
2023-06-30T18:59:06.303Z,28.53
2023-06-30T19:01:34.377Z,28.43
2023-06-30T19:04:02.840Z,28.35
2023-06-30T19:06:30.773Z,28.23
2023-06-30T19:08:58.618Z,28.16
2023-06-30T19:11:26.357Z,28.06
2023-06-30T19:13:53.876Z,28.04
2023-06-30T19:16:21.805Z,28.00
2023-06-30T19:18:49.350Z,27.96
2023-06-30T19:21:17.446Z,27.85
2023-06-30T19:23:45.416Z,27.71
2023-06-30T19:26:13.127Z,27.58
2023-06-30T19:28:41.082Z,27.50
2023-06-30T19:31:09.021Z,27.39
2023-06-30T19:33:37.755Z,27.22
2023-06-30T19:36:06.379Z,27.08
2023-06-30T19:38:34.293Z,26.97
2023-06-30T19:41:01.873Z,26.90
2023-06-30T19:43:29.839Z,26.87
2023-06-30T19:45:57.587Z,26.78
2023-06-30T19:48:25.052Z,26.78
2023-06-30T19:50:52.553Z,26.73
2023-06-30T19:53:20.385Z,26.61
2023-06-30T19:55:48.220Z,26.49
2023-06-30T19:58:16.469Z,26.41
2023-06-30T20:00:44.303Z,26.37
2023-06-30T20:03:12.124Z,26.27
2023-06-30T20:05:39.701Z,26.19
2023-06-30T20:08:07.140Z,26.20
2023-06-30T20:10:35.155Z,26.12
2023-06-30T20:13:03.098Z,26.03
2023-06-30T20:15:32.371Z,25.93
2023-06-30T20:18:00.232Z,25.88
2023-06-30T20:20:28.847Z,25.79
2023-06-30T20:22:56.395Z,25.74
2023-06-30T20:25:24.623Z,25.72
2023-06-30T20:27:52.445Z,25.67
2023-06-30T20:30:20.179Z,25.58
2023-06-30T20:32:48.008Z,25.53
2023-06-30T20:35:18.268Z,25.49
2023-06-30T20:37:46.614Z,25.47
2023-06-30T20:40:14.395Z,25.45
2023-06-30T20:42:41.820Z,25.38
2023-06-30T20:45:10.422Z,25.40
2023-06-30T20:47:38.440Z,25.39
2023-06-30T20:50:06.585Z,25.35
2023-06-30T20:52:34.044Z,25.23
2023-06-30T20:55:01.949Z,25.19
2023-06-30T20:57:29.449Z,25.13
2023-06-30T20:59:57.240Z,25.10
2023-06-30T21:02:25.001Z,25.11
2023-06-30T21:04:54.136Z,25.11
2023-06-30T21:07:21.738Z,25.01
2023-06-30T21:09:49.650Z,24.99
2023-06-30T21:12:17.210Z,24.99
2023-06-30T21:14:44.785Z,24.98
2023-06-30T21:17:12.542Z,24.88
2023-06-30T21:19:40.990Z,24.88
2023-06-30T21:22:10.690Z,24.77
2023-06-30T21:24:38.484Z,24.78
2023-06-30T21:27:06.085Z,24.70
2023-06-30T21:29:33.486Z,24.68
2023-06-30T21:32:01.283Z,24.62
2023-06-30T21:34:28.856Z,24.61
2023-06-30T21:36:56.588Z,24.57
2023-06-30T21:39:24.431Z,24.42
2023-06-30T21:41:51.927Z,24.43
2023-06-30T21:44:19.599Z,24.40
2023-06-30T21:46:47.336Z,24.37
2023-06-30T21:49:14.789Z,24.29
2023-06-30T21:51:42.515Z,24.29
2023-06-30T21:54:10.237Z,24.25
2023-06-30T21:56:37.955Z,24.18
2023-06-30T21:59:06.000Z,24.18
2023-06-30T22:01:41.111Z,24.13
2023-06-30T22:04:10.287Z,24.14
2023-06-30T22:06:37.943Z,24.11
2023-06-30T22:09:15.491Z,24.06
2023-06-30T22:11:45.024Z,23.98
2023-06-30T22:14:15.436Z,23.98
2023-06-30T22:16:43.031Z,23.97
2023-06-30T22:19:10.736Z,23.93
2023-06-30T22:21:38.317Z,23.87
2023-06-30T22:24:06.017Z,23.86
2023-06-30T22:26:33.789Z,23.81
2023-06-30T22:29:01.226Z,23.75
2023-06-30T22:31:28.799Z,23.72
2023-06-30T22:33:56.654Z,23.67
2023-06-30T22:36:24.124Z,23.58
2023-06-30T22:38:51.540Z,23.54
2023-06-30T22:41:19.300Z,23.57
2023-06-30T22:43:48.620Z,23.58
2023-06-30T22:46:16.282Z,23.53
2023-06-30T22:48:44.519Z,23.52
2023-06-30T22:51:12.856Z,23.39
2023-06-30T22:53:40.289Z,23.33
2023-06-30T22:56:08.071Z,23.36
2023-06-30T22:58:35.655Z,23.31
2023-06-30T23:01:03.151Z,23.26
2023-06-30T23:03:31.086Z,23.15
2023-06-30T23:05:58.603Z,23.14
2023-06-30T23:08:26.079Z,23.13
2023-06-30T23:10:54.147Z,23.18
2023-06-30T23:13:21.580Z,23.14
2023-06-30T23:15:49.208Z,23.00
2023-06-30T23:18:20.445Z,23.01
2023-06-30T23:20:48.432Z,22.97
2023-06-30T23:23:16.145Z,22.92
2023-06-30T23:25:43.955Z,22.89
2023-06-30T23:28:11.367Z,22.83
2023-06-30T23:30:40.835Z,22.81
2023-06-30T23:33:08.870Z,22.79
2023-06-30T23:35:36.351Z,22.81
2023-06-30T23:38:03.799Z,22.74
2023-06-30T23:40:31.484Z,22.73
2023-06-30T23:43:01.031Z,22.65
2023-06-30T23:45:28.481Z,22.66
2023-06-30T23:47:56.285Z,22.59
2023-06-30T23:50:24.505Z,22.61
2023-06-30T23:52:51.938Z,22.53
2023-06-30T23:55:19.677Z,22.62
2023-06-30T23:57:47.169Z,22.64
